sensor_id;sensor_type;location;lat;lon;timestamp;pressure;altitude;pressure_sealevel;temperature;humidity
27685;BME280;46113;50.130;8.526;2023-02-17T00:01:29;99807.81;;;3.26;86.92
27685;BME280;46113;50.130;8.526;2023-02-17T00:03:57;99806.75;;;3.36;86.80
27685;BME280;46113;50.130;8.526;2023-02-17T00:06:27;99810.41;;;3.27;86.63
27685;BME280;46113;50.130;8.526;2023-02-17T00:08:54;99798.03;;;3.35;86.18
27685;BME280;46113;50.130;8.526;2023-02-17T00:11:21;99794.34;;;3.46;85.51
27685;BME280;46113;50.130;8.526;2023-02-17T00:13:48;99798.63;;;3.53;86.23
27685;BME280;46113;50.130;8.526;2023-02-17T00:16:20;99801.53;;;3.34;86.45
27685;BME280;46113;50.130;8.526;2023-02-17T00:18:52;99803.06;;;3.46;85.78
27685;BME280;46113;50.130;8.526;2023-02-17T00:21:21;99796.94;;;3.47;86.55
27685;BME280;46113;50.130;8.526;2023-02-17T00:23:51;99793.00;;;3.26;86.33
27685;BME280;46113;50.130;8.526;2023-02-17T00:26:19;99789.41;;;3.30;87.77
27685;BME280;46113;50.130;8.526;2023-02-17T00:28:47;99786.25;;;3.14;89.25
27685;BME280;46113;50.130;8.526;2023-02-17T00:31:16;99775.53;;;3.28;89.15
27685;BME280;46113;50.130;8.526;2023-02-17T00:33:44;99771.25;;;3.23;88.62
27685;BME280;46113;50.130;8.526;2023-02-17T00:36:13;99769.50;;;3.25;89.53
27685;BME280;46113;50.130;8.526;2023-02-17T00:38:40;99771.63;;;3.50;87.83
27685;BME280;46113;50.130;8.526;2023-02-17T00:41:07;99763.56;;;3.15;89.48
27685;BME280;46113;50.130;8.526;2023-02-17T00:43:34;99767.66;;;3.30;89.42
27685;BME280;46113;50.130;8.526;2023-02-17T00:46:00;99771.53;;;3.08;90.37
27685;BME280;46113;50.130;8.526;2023-02-17T00:48:30;99760.25;;;3.51;88.83
27685;BME280;46113;50.130;8.526;2023-02-17T00:50:57;99763.72;;;3.51;88.75
27685;BME280;46113;50.130;8.526;2023-02-17T00:53:25;99762.41;;;3.30;89.13
27685;BME280;46113;50.130;8.526;2023-02-17T00:55:51;99769.16;;;3.42;87.86
27685;BME280;46113;50.130;8.526;2023-02-17T00:58:18;99755.38;;;3.32;88.20
27685;BME280;46113;50.130;8.526;2023-02-17T01:00:45;99752.63;;;3.40;88.37
27685;BME280;46113;50.130;8.526;2023-02-17T01:03:12;99760.88;;;3.19;87.90
27685;BME280;46113;50.130;8.526;2023-02-17T01:05:43;99766.69;;;3.34;88.31
27685;BME280;46113;50.130;8.526;2023-02-17T01:08:14;99761.25;;;3.43;88.09
27685;BME280;46113;50.130;8.526;2023-02-17T01:10:42;99764.81;;;3.41;87.67
27685;BME280;46113;50.130;8.526;2023-02-17T01:13:10;99764.25;;;3.25;87.58
27685;BME280;46113;50.130;8.526;2023-02-17T01:15:48;99774.59;;;3.31;87.65
27685;BME280;46113;50.130;8.526;2023-02-17T01:18:17;99763.78;;;3.50;87.44
27685;BME280;46113;50.130;8.526;2023-02-17T01:20:44;99768.41;;;3.37;87.05
27685;BME280;46113;50.130;8.526;2023-02-17T01:23:12;99769.75;;;3.56;86.74
27685;BME280;46113;50.130;8.526;2023-02-17T01:25:41;99769.50;;;3.23;87.03
27685;BME280;46113;50.130;8.526;2023-02-17T01:28:13;99764.13;;;3.31;87.05
27685;BME280;46113;50.130;8.526;2023-02-17T01:30:40;99760.56;;;3.35;86.88
27685;BME280;46113;50.130;8.526;2023-02-17T01:33:07;99757.97;;;3.33;87.90
27685;BME280;46113;50.130;8.526;2023-02-17T01:35:34;99748.16;;;3.45;87.08
27685;BME280;46113;50.130;8.526;2023-02-17T01:38:00;99746.38;;;3.47;86.31
27685;BME280;46113;50.130;8.526;2023-02-17T01:40:27;99739.06;;;3.20;87.87
27685;BME280;46113;50.130;8.526;2023-02-17T01:42:55;99741.06;;;3.50;87.33
27685;BME280;46113;50.130;8.526;2023-02-17T01:47:56;99746.06;;;3.64;86.64
27685;BME280;46113;50.130;8.526;2023-02-17T01:53:37;99731.00;;;3.31;87.28
27685;BME280;46113;50.130;8.526;2023-02-17T01:56:06;99735.09;;;3.43;87.45
27685;BME280;46113;50.130;8.526;2023-02-17T01:58:39;99734.91;;;3.56;86.65
27685;BME280;46113;50.130;8.526;2023-02-17T02:01:08;99734.16;;;3.47;86.95
27685;BME280;46113;50.130;8.526;2023-02-17T02:03:35;99725.50;;;3.45;86.85
27685;BME280;46113;50.130;8.526;2023-02-17T02:06:07;99723.78;;;3.43;86.29
27685;BME280;46113;50.130;8.526;2023-02-17T02:11:29;99712.28;;;3.50;87.29
27685;BME280;46113;50.130;8.526;2023-02-17T02:13:56;99711.31;;;3.57;87.35
27685;BME280;46113;50.130;8.526;2023-02-17T02:16:49;99711.81;;;3.31;89.17
27685;BME280;46113;50.130;8.526;2023-02-17T02:22:17;99693.13;;;3.50;88.49
27685;BME280;46113;50.130;8.526;2023-02-17T02:27:44;99680.78;;;3.56;88.72
27685;BME280;46113;50.130;8.526;2023-02-17T02:33:14;99671.31;;;3.51;88.30
27685;BME280;46113;50.130;8.526;2023-02-17T02:35:50;99675.75;;;3.47;88.53
27685;BME280;46113;50.130;8.526;2023-02-17T02:38:36;99668.59;;;3.57;87.55
27685;BME280;46113;50.130;8.526;2023-02-17T02:41:12;99666.22;;;3.44;87.69
27685;BME280;46113;50.130;8.526;2023-02-17T02:43:41;99659.34;;;3.39;88.80
27685;BME280;46113;50.130;8.526;2023-02-17T02:46:09;99668.34;;;3.25;88.00
27685;BME280;46113;50.130;8.526;2023-02-17T02:48:36;99658.13;;;3.57;87.82
27685;BME280;46113;50.130;8.526;2023-02-17T02:54:23;99645.94;;;3.56;86.80
27685;BME280;46113;50.130;8.526;2023-02-17T02:57:12;99641.44;;;3.20;88.61
27685;BME280;46113;50.130;8.526;2023-02-17T03:00:14;99631.13;;;3.55;87.73
27685;BME280;46113;50.130;8.526;2023-02-17T03:05:15;99639.91;;;3.51;87.13
27685;BME280;46113;50.130;8.526;2023-02-17T03:07:57;99639.22;;;3.42;88.46
27685;BME280;46113;50.130;8.526;2023-02-17T03:10:24;99630.06;;;3.64;87.48
27685;BME280;46113;50.130;8.526;2023-02-17T03:12:51;99637.56;;;3.38;87.41
27685;BME280;46113;50.130;8.526;2023-02-17T03:15:20;99630.66;;;3.75;86.43
27685;BME280;46113;50.130;8.526;2023-02-17T03:17:49;99636.66;;;3.80;86.03
27685;BME280;46113;50.130;8.526;2023-02-17T03:20:15;99629.16;;;3.65;86.82
27685;BME280;46113;50.130;8.526;2023-02-17T03:22:44;99626.38;;;3.71;86.83
27685;BME280;46113;50.130;8.526;2023-02-17T03:25:14;99621.13;;;3.72;86.22
27685;BME280;46113;50.130;8.526;2023-02-17T03:27:42;99620.28;;;3.72;85.98
27685;BME280;46113;50.130;8.526;2023-02-17T03:30:09;99622.72;;;3.40;87.26
27685;BME280;46113;50.130;8.526;2023-02-17T03:32:36;99622.91;;;3.72;86.23
27685;BME280;46113;50.130;8.526;2023-02-17T03:35:03;99617.19;;;3.54;86.32
27685;BME280;46113;50.130;8.526;2023-02-17T03:37:30;99620.59;;;3.58;86.74
27685;BME280;46113;50.130;8.526;2023-02-17T03:39:56;99616.31;;;3.54;87.55
27685;BME280;46113;50.130;8.526;2023-02-17T03:42:23;99625.75;;;3.61;87.03
27685;BME280;46113;50.130;8.526;2023-02-17T03:44:50;99625.97;;;3.50;87.65
27685;BME280;46113;50.130;8.526;2023-02-17T03:47:16;99629.34;;;3.57;87.11
27685;BME280;46113;50.130;8.526;2023-02-17T03:49:43;99625.59;;;3.67;86.48
27685;BME280;46113;50.130;8.526;2023-02-17T03:52:10;99625.53;;;3.72;86.08
27685;BME280;46113;50.130;8.526;2023-02-17T03:54:36;99629.38;;;3.55;86.54
27685;BME280;46113;50.130;8.526;2023-02-17T03:57:03;99637.84;;;3.67;86.55
27685;BME280;46113;50.130;8.526;2023-02-17T03:59:29;99631.59;;;3.72;86.61
27685;BME280;46113;50.130;8.526;2023-02-17T04:01:56;99633.28;;;3.75;86.11
27685;BME280;46113;50.130;8.526;2023-02-17T04:04:23;99630.81;;;3.69;87.13
27685;BME280;46113;50.130;8.526;2023-02-17T04:06:49;99628.03;;;3.75;86.33
27685;BME280;46113;50.130;8.526;2023-02-17T04:09:16;99626.47;;;3.68;86.63
27685;BME280;46113;50.130;8.526;2023-02-17T04:11:43;99635.00;;;3.76;86.68
27685;BME280;46113;50.130;8.526;2023-02-17T04:14:09;99645.97;;;3.54;87.83
27685;BME280;46113;50.130;8.526;2023-02-17T04:16:36;99633.69;;;3.56;87.27
27685;BME280;46113;50.130;8.526;2023-02-17T04:19:07;99642.53;;;3.52;88.44
27685;BME280;46113;50.130;8.526;2023-02-17T04:21:34;99637.75;;;3.70;87.15
27685;BME280;46113;50.130;8.526;2023-02-17T04:24:01;99635.16;;;3.70;87.07
27685;BME280;46113;50.130;8.526;2023-02-17T04:26:29;99633.50;;;3.66;87.17
27685;BME280;46113;50.130;8.526;2023-02-17T04:28:56;99634.94;;;3.79;86.79
27685;BME280;46113;50.130;8.526;2023-02-17T04:31:22;99633.97;;;3.83;86.23
27685;BME280;46113;50.130;8.526;2023-02-17T04:33:51;99631.97;;;3.55;87.46
27685;BME280;46113;50.130;8.526;2023-02-17T04:36:17;99623.72;;;3.74;87.32
27685;BME280;46113;50.130;8.526;2023-02-17T04:38:44;99630.69;;;3.73;87.34
27685;BME280;46113;50.130;8.526;2023-02-17T04:41:11;99631.50;;;3.77;87.17
27685;BME280;46113;50.130;8.526;2023-02-17T04:43:37;99636.59;;;3.83;87.23
27685;BME280;46113;50.130;8.526;2023-02-17T04:46:04;99630.59;;;3.78;86.78
27685;BME280;46113;50.130;8.526;2023-02-17T04:48:31;99630.97;;;3.99;86.15
27685;BME280;46113;50.130;8.526;2023-02-17T04:50:58;99632.19;;;3.84;86.52
27685;BME280;46113;50.130;8.526;2023-02-17T04:53:24;99631.31;;;3.85;86.92
27685;BME280;46113;50.130;8.526;2023-02-17T04:55:52;99634.53;;;3.96;86.88
27685;BME280;46113;50.130;8.526;2023-02-17T04:58:19;99630.69;;;3.73;88.05
27685;BME280;46113;50.130;8.526;2023-02-17T05:00:47;99621.63;;;3.89;87.84
27685;BME280;46113;50.130;8.526;2023-02-17T05:03:14;99626.88;;;3.89;88.47
27685;BME280;46113;50.130;8.526;2023-02-17T05:05:41;99628.34;;;3.99;87.45
27685;BME280;46113;50.130;8.526;2023-02-17T05:08:08;99623.81;;;4.07;86.47
27685;BME280;46113;50.130;8.526;2023-02-17T05:10:34;99625.84;;;3.94;87.45
27685;BME280;46113;50.130;8.526;2023-02-17T05:13:01;99622.56;;;4.21;87.00
27685;BME280;46113;50.130;8.526;2023-02-17T05:15:27;99622.22;;;4.00;87.13
27685;BME280;46113;50.130;8.526;2023-02-17T05:17:54;99620.19;;;4.11;86.56
27685;BME280;46113;50.130;8.526;2023-02-17T05:20:21;99613.25;;;4.09;85.92
27685;BME280;46113;50.130;8.526;2023-02-17T05:22:47;99616.75;;;4.09;86.55
27685;BME280;46113;50.130;8.526;2023-02-17T05:25:14;99624.03;;;3.98;87.22
27685;BME280;46113;50.130;8.526;2023-02-17T05:27:40;99612.94;;;3.86;88.42
27685;BME280;46113;50.130;8.526;2023-02-17T05:30:07;99618.66;;;4.03;87.27
27685;BME280;46113;50.130;8.526;2023-02-17T05:32:34;99619.28;;;3.76;88.28
27685;BME280;46113;50.130;8.526;2023-02-17T05:35:00;99611.16;;;3.89;88.73
27685;BME280;46113;50.130;8.526;2023-02-17T05:37:27;99613.13;;;3.79;90.66
27685;BME280;46113;50.130;8.526;2023-02-17T05:39:53;99617.47;;;4.16;89.27
27685;BME280;46113;50.130;8.526;2023-02-17T05:42:20;99618.69;;;4.01;89.17
27685;BME280;46113;50.130;8.526;2023-02-17T05:44:47;99612.69;;;3.97;90.18
27685;BME280;46113;50.130;8.526;2023-02-17T05:47:13;99612.28;;;4.13;89.42
27685;BME280;46113;50.130;8.526;2023-02-17T05:49:40;99611.44;;;4.12;88.81
27685;BME280;46113;50.130;8.526;2023-02-17T05:52:06;99622.91;;;4.08;89.33
27685;BME280;46113;50.130;8.526;2023-02-17T05:54:33;99612.22;;;4.16;88.84
27685;BME280;46113;50.130;8.526;2023-02-17T05:56:59;99618.31;;;4.17;88.83
27685;BME280;46113;50.130;8.526;2023-02-17T05:59:26;99622.44;;;3.91;91.39
27685;BME280;46113;50.130;8.526;2023-02-17T06:01:53;99623.13;;;3.99;92.29
27685;BME280;46113;50.130;8.526;2023-02-17T06:04:19;99624.56;;;4.11;91.71
27685;BME280;46113;50.130;8.526;2023-02-17T06:06:46;99636.94;;;4.06;91.21
27685;BME280;46113;50.130;8.526;2023-02-17T06:09:13;99637.44;;;4.20;91.77
27685;BME280;46113;50.130;8.526;2023-02-17T06:11:40;99629.38;;;4.28;90.96
27685;BME280;46113;50.130;8.526;2023-02-17T06:14:06;99616.84;;;4.39;89.90
27685;BME280;46113;50.130;8.526;2023-02-17T06:16:33;99618.22;;;4.21;90.37
27685;BME280;46113;50.130;8.526;2023-02-17T06:19:00;99619.19;;;4.17;91.66
27685;BME280;46113;50.130;8.526;2023-02-17T06:21:27;99626.22;;;4.15;92.20
27685;BME280;46113;50.130;8.526;2023-02-17T06:23:54;99611.34;;;4.50;90.10
27685;BME280;46113;50.130;8.526;2023-02-17T06:26:21;99610.03;;;4.32;89.98
27685;BME280;46113;50.130;8.526;2023-02-17T06:28:48;99604.50;;;4.45;90.23
27685;BME280;46113;50.130;8.526;2023-02-17T06:31:15;99605.41;;;4.44;91.00
27685;BME280;46113;50.130;8.526;2023-02-17T06:33:41;99599.22;;;4.11;92.99
27685;BME280;46113;50.130;8.526;2023-02-17T06:36:08;99597.50;;;4.45;91.21
27685;BME280;46113;50.130;8.526;2023-02-17T06:38:35;99589.66;;;4.45;90.34
27685;BME280;46113;50.130;8.526;2023-02-17T06:41:01;99607.31;;;4.37;90.77
27685;BME280;46113;50.130;8.526;2023-02-17T06:43:28;99600.72;;;4.22;91.98
27685;BME280;46113;50.130;8.526;2023-02-17T06:45:55;99611.09;;;4.26;92.04
27685;BME280;46113;50.130;8.526;2023-02-17T06:48:21;99611.38;;;4.49;91.48
27685;BME280;46113;50.130;8.526;2023-02-17T06:50:48;99620.88;;;4.53;90.53
27685;BME280;46113;50.130;8.526;2023-02-17T06:53:15;99629.25;;;4.33;91.57
27685;BME280;46113;50.130;8.526;2023-02-17T06:55:45;99635.41;;;4.32;91.54
27685;BME280;46113;50.130;8.526;2023-02-17T06:58:11;99637.66;;;4.46;90.85
27685;BME280;46113;50.130;8.526;2023-02-17T07:00:38;99644.25;;;4.61;90.99
27685;BME280;46113;50.130;8.526;2023-02-17T11:34:21;99623.03;;;6.42;86.06
27685;BME280;46113;50.130;8.526;2023-02-17T11:37:19;99618.47;;;6.72;85.33
27685;BME280;46113;50.130;8.526;2023-02-17T11:39:49;99620.44;;;6.40;86.99
27685;BME280;46113;50.130;8.526;2023-02-17T11:42:28;99619.97;;;6.29;86.37
27685;BME280;46113;50.130;8.526;2023-02-17T11:44:57;99622.84;;;6.48;85.51
27685;BME280;46113;50.130;8.526;2023-02-17T11:47:41;99615.72;;;6.24;87.13
27685;BME280;46113;50.130;8.526;2023-02-17T11:50:35;99631.72;;;6.69;85.47
27685;BME280;46113;50.130;8.526;2023-02-17T11:56:22;99616.97;;;6.89;84.08
27685;BME280;46113;50.130;8.526;2023-02-17T12:02:13;99608.88;;;6.71;83.70
27685;BME280;46113;50.130;8.526;2023-02-17T12:12:30;99592.63;;;6.84;84.46
27685;BME280;46113;50.130;8.526;2023-02-17T12:15:09;99579.59;;;6.81;83.85
27685;BME280;46113;50.130;8.526;2023-02-17T12:21:11;99576.22;;;7.01;83.62
27685;BME280;46113;50.130;8.526;2023-02-17T12:35:47;99556.28;;;7.41;82.86
27685;BME280;46113;50.130;8.526;2023-02-17T12:38:24;99557.59;;;7.74;81.77
27685;BME280;46113;50.130;8.526;2023-02-17T12:40:56;99539.50;;;7.22;83.15
27685;BME280;46113;50.130;8.526;2023-02-17T12:43:31;99545.28;;;7.31;83.39
27685;BME280;46113;50.130;8.526;2023-02-17T12:46:03;99546.59;;;7.20;83.66
27685;BME280;46113;50.130;8.526;2023-02-17T12:48:58;99552.59;;;7.23;82.40
27685;BME280;46113;50.130;8.526;2023-02-17T12:51:32;99540.94;;;6.59;85.94
27685;BME280;46113;50.130;8.526;2023-02-17T12:59:34;99536.00;;;7.21;83.47
27685;BME280;46113;50.130;8.526;2023-02-17T13:02:05;99535.97;;;6.99;84.89
27685;BME280;46113;50.130;8.526;2023-02-17T13:04:33;99528.53;;;7.10;84.38
27685;BME280;46113;50.130;8.526;2023-02-17T13:09:54;99519.66;;;7.57;82.11
27685;BME280;46113;50.130;8.526;2023-02-17T13:14:53;99525.63;;;7.40;82.62
27685;BME280;46113;50.130;8.526;2023-02-17T13:22:39;99516.06;;;7.81;80.13
27685;BME280;46113;50.130;8.526;2023-02-17T13:25:30;99519.47;;;7.62;80.48
27685;BME280;46113;50.130;8.526;2023-02-17T13:27:54;99525.91;;;7.33;82.46
27685;BME280;46113;50.130;8.526;2023-02-17T13:33:00;99530.66;;;7.67;80.61
27685;BME280;46113;50.130;8.526;2023-02-17T13:35:31;99531.72;;;7.41;80.62
27685;BME280;46113;50.130;8.526;2023-02-17T13:37:58;99521.09;;;7.65;81.36
27685;BME280;46113;50.130;8.526;2023-02-17T13:42:56;99523.44;;;7.50;81.16
27685;BME280;46113;50.130;8.526;2023-02-17T13:45:31;99509.03;;;7.59;81.05
27685;BME280;46113;50.130;8.526;2023-02-17T13:48:14;99503.22;;;7.30;82.05
27685;BME280;46113;50.130;8.526;2023-02-17T13:51:20;99516.13;;;7.36;81.61
27685;BME280;46113;50.130;8.526;2023-02-17T13:53:40;99520.28;;;7.20;82.33
27685;BME280;46113;50.130;8.526;2023-02-17T13:56:10;99524.22;;;7.31;82.67
27685;BME280;46113;50.130;8.526;2023-02-17T13:58:41;99520.19;;;7.66;80.92
27685;BME280;46113;50.130;8.526;2023-02-17T14:01:14;99531.59;;;7.66;81.15
27685;BME280;46113;50.130;8.526;2023-02-17T14:03:46;99532.91;;;7.34;81.17
27685;BME280;46113;50.130;8.526;2023-02-17T14:06:39;99533.91;;;7.07;83.56
27685;BME280;46113;50.130;8.526;2023-02-17T14:09:27;99532.84;;;7.78;81.26
27685;BME280;46113;50.130;8.526;2023-02-17T14:11:57;99530.78;;;7.64;81.12
27685;BME280;46113;50.130;8.526;2023-02-17T14:14:30;99520.94;;;7.69;80.52
27685;BME280;46113;50.130;8.526;2023-02-17T14:17:07;99507.22;;;7.82;79.58
27685;BME280;46113;50.130;8.526;2023-02-17T14:19:47;99492.75;;;7.71;80.33
27685;BME280;46113;50.130;8.526;2023-02-17T14:22:40;99489.44;;;7.46;80.90
27685;BME280;46113;50.130;8.526;2023-02-17T14:25:12;99493.53;;;7.74;80.32
27685;BME280;46113;50.130;8.526;2023-02-17T14:27:44;99495.50;;;7.68;80.27
27685;BME280;46113;50.130;8.526;2023-02-17T14:30:31;99498.00;;;7.28;81.56
27685;BME280;46113;50.130;8.526;2023-02-17T14:36:02;99480.63;;;7.24;82.54
27685;BME280;46113;50.130;8.526;2023-02-17T14:38:34;99484.84;;;7.06;82.54
27685;BME280;46113;50.130;8.526;2023-02-17T14:41:04;99490.81;;;7.54;81.18
27685;BME280;46113;50.130;8.526;2023-02-17T14:43:31;99499.66;;;7.74;80.29
27685;BME280;46113;50.130;8.526;2023-02-17T14:45:58;99495.16;;;7.55;80.83
27685;BME280;46113;50.130;8.526;2023-02-17T14:48:25;99496.31;;;7.70;79.64
27685;BME280;46113;50.130;8.526;2023-02-17T14:50:55;99507.00;;;7.66;80.55
27685;BME280;46113;50.130;8.526;2023-02-17T14:53:28;99494.09;;;7.60;80.73
27685;BME280;46113;50.130;8.526;2023-02-17T14:56:16;99479.50;;;7.73;80.32
27685;BME280;46113;50.130;8.526;2023-02-17T14:58:46;99481.88;;;7.79;79.71
27685;BME280;46113;50.130;8.526;2023-02-17T15:01:16;99499.00;;;7.26;81.53
27685;BME280;46113;50.130;8.526;2023-02-17T15:03:43;99500.63;;;7.51;80.90
27685;BME280;46113;50.130;8.526;2023-02-17T15:06:15;99500.28;;;7.38;81.35
27685;BME280;46113;50.130;8.526;2023-02-17T15:08:44;99499.69;;;7.52;81.65
27685;BME280;46113;50.130;8.526;2023-02-17T15:11:32;99502.66;;;7.22;81.72
27685;BME280;46113;50.130;8.526;2023-02-17T15:13:59;99505.25;;;7.66;80.33
27685;BME280;46113;50.130;8.526;2023-02-17T15:16:28;99510.78;;;7.81;79.30
27685;BME280;46113;50.130;8.526;2023-02-17T15:18:54;99507.00;;;7.66;79.98
27685;BME280;46113;50.130;8.526;2023-02-17T15:21:26;99494.75;;;7.44;81.00
27685;BME280;46113;50.130;8.526;2023-02-17T15:23:55;99498.38;;;7.41;81.79
27685;BME280;46113;50.130;8.526;2023-02-17T15:26:22;99495.88;;;7.59;81.32
27685;BME280;46113;50.130;8.526;2023-02-17T15:28:49;99506.38;;;7.16;82.73
27685;BME280;46113;50.130;8.526;2023-02-17T15:31:16;99503.63;;;7.19;83.05
27685;BME280;46113;50.130;8.526;2023-02-17T15:33:55;99511.91;;;7.32;83.20
27685;BME280;46113;50.130;8.526;2023-02-17T15:36:23;99505.25;;;7.66;81.18
27685;BME280;46113;50.130;8.526;2023-02-17T15:38:50;99495.09;;;7.57;81.00
27685;BME280;46113;50.130;8.526;2023-02-17T15:41:20;99493.66;;;7.70;80.87
27685;BME280;46113;50.130;8.526;2023-02-17T16:57:15;99502.28;;;7.31;83.63
27685;BME280;46113;50.130;8.526;2023-02-17T16:59:44;99515.91;;;7.41;82.48
27685;BME280;46113;50.130;8.526;2023-02-17T17:02:11;99510.28;;;7.28;83.18
27685;BME280;46113;50.130;8.526;2023-02-17T17:04:38;99536.25;;;7.15;83.92
27685;BME280;46113;50.130;8.526;2023-02-17T17:07:05;99525.88;;;7.34;83.39
27685;BME280;46113;50.130;8.526;2023-02-17T17:09:32;99520.19;;;7.43;83.21
27685;BME280;46113;50.130;8.526;2023-02-17T17:11:58;99521.84;;;7.24;83.81
27685;BME280;46113;50.130;8.526;2023-02-17T17:14:25;99536.75;;;7.47;82.34
27685;BME280;46113;50.130;8.526;2023-02-17T17:16:57;99539.03;;;7.77;81.06
27685;BME280;46113;50.130;8.526;2023-02-17T17:19:26;99526.22;;;7.47;81.97
27685;BME280;46113;50.130;8.526;2023-02-17T17:21:53;99539.69;;;7.17;83.39
27685;BME280;46113;50.130;8.526;2023-02-17T17:24:19;99538.19;;;7.54;82.48
27685;BME280;46113;50.130;8.526;2023-02-17T17:26:47;99538.50;;;7.69;80.92
27685;BME280;46113;50.130;8.526;2023-02-17T17:29:17;99534.84;;;7.51;81.69
27685;BME280;46113;50.130;8.526;2023-02-17T17:31:44;99536.09;;;7.42;82.71
27685;BME280;46113;50.130;8.526;2023-02-17T17:34:11;99539.88;;;7.35;82.46
27685;BME280;46113;50.130;8.526;2023-02-17T17:36:40;99539.84;;;7.57;81.31
27685;BME280;46113;50.130;8.526;2023-02-17T17:39:13;99551.38;;;7.32;82.19
27685;BME280;46113;50.130;8.526;2023-02-17T17:41:40;99536.44;;;7.55;81.18
27685;BME280;46113;50.130;8.526;2023-02-17T17:44:07;99544.81;;;7.65;81.22
27685;BME280;46113;50.130;8.526;2023-02-17T17:46:36;99537.56;;;7.70;81.01
27685;BME280;46113;50.130;8.526;2023-02-17T17:49:04;99557.44;;;7.34;82.34
27685;BME280;46113;50.130;8.526;2023-02-17T17:51:33;99556.59;;;7.34;81.51
27685;BME280;46113;50.130;8.526;2023-02-17T17:53:59;99556.56;;;7.56;81.65
27685;BME280;46113;50.130;8.526;2023-02-17T17:56:29;99557.72;;;7.71;80.12
27685;BME280;46113;50.130;8.526;2023-02-17T17:58:59;99568.03;;;7.55;80.67
27685;BME280;46113;50.130;8.526;2023-02-17T18:01:27;99579.44;;;7.76;80.14
27685;BME280;46113;50.130;8.526;2023-02-17T18:03:54;99577.28;;;7.65;80.66
27685;BME280;46113;50.130;8.526;2023-02-17T18:06:29;99580.03;;;7.62;80.76
27685;BME280;46113;50.130;8.526;2023-02-17T18:09:00;99586.00;;;7.88;79.52
27685;BME280;46113;50.130;8.526;2023-02-17T18:11:28;99591.25;;;7.21;81.40
27685;BME280;46113;50.130;8.526;2023-02-17T18:13:58;99604.28;;;7.70;79.92
27685;BME280;46113;50.130;8.526;2023-02-17T18:16:27;99597.66;;;7.60;80.62
27685;BME280;46113;50.130;8.526;2023-02-17T18:18:55;99602.78;;;7.63;80.43
27685;BME280;46113;50.130;8.526;2023-02-17T18:21:23;99615.03;;;7.64;80.12
27685;BME280;46113;50.130;8.526;2023-02-17T18:23:50;99605.69;;;7.57;80.14
27685;BME280;46113;50.130;8.526;2023-02-17T18:26:16;99614.44;;;7.57;80.17
27685;BME280;46113;50.130;8.526;2023-02-17T18:28:44;99619.69;;;7.35;80.74
27685;BME280;46113;50.130;8.526;2023-02-17T18:31:13;99624.78;;;7.16;82.00
27685;BME280;46113;50.130;8.526;2023-02-17T18:33:40;99630.91;;;7.63;80.14
27685;BME280;46113;50.130;8.526;2023-02-17T18:36:30;99632.13;;;7.76;79.68
27685;BME280;46113;50.130;8.526;2023-02-17T18:38:56;99622.78;;;7.23;81.24
27685;BME280;46113;50.130;8.526;2023-02-17T18:41:26;99614.56;;;7.54;80.21
27685;BME280;46113;50.130;8.526;2023-02-17T18:43:55;99618.13;;;7.76;79.61
27685;BME280;46113;50.130;8.526;2023-02-17T18:46:22;99616.81;;;7.64;79.65
27685;BME280;46113;50.130;8.526;2023-02-17T18:48:55;99628.38;;;7.37;80.87
27685;BME280;46113;50.130;8.526;2023-02-17T18:51:22;99636.66;;;7.50;79.77
27685;BME280;46113;50.130;8.526;2023-02-17T18:53:50;99648.84;;;7.53;80.30
27685;BME280;46113;50.130;8.526;2023-02-17T18:56:20;99652.28;;;7.77;78.53
27685;BME280;46113;50.130;8.526;2023-02-17T18:58:49;99655.06;;;7.50;79.59
27685;BME280;46113;50.130;8.526;2023-02-17T19:01:18;99657.22;;;7.40;79.68
27685;BME280;46113;50.130;8.526;2023-02-17T19:03:45;99661.41;;;7.68;78.88
27685;BME280;46113;50.130;8.526;2023-02-17T19:06:14;99668.09;;;7.77;78.13
27685;BME280;46113;50.130;8.526;2023-02-17T19:08:45;99668.94;;;7.78;78.67
27685;BME280;46113;50.130;8.526;2023-02-17T19:11:14;99677.38;;;7.64;78.52
27685;BME280;46113;50.130;8.526;2023-02-17T19:13:41;99681.16;;;7.56;79.19
27685;BME280;46113;50.130;8.526;2023-02-17T19:16:13;99672.97;;;7.64;78.97
27685;BME280;46113;50.130;8.526;2023-02-17T19:18:41;99677.31;;;7.43;81.28
27685;BME280;46113;50.130;8.526;2023-02-17T19:21:08;99681.69;;;7.18;82.05
27685;BME280;46113;50.130;8.526;2023-02-17T19:23:36;99673.81;;;7.42;82.16
27685;BME280;46113;50.130;8.526;2023-02-17T19:26:04;99693.38;;;7.11;84.04
27685;BME280;46113;50.130;8.526;2023-02-17T19:28:34;99694.22;;;7.36;83.17
27685;BME280;46113;50.130;8.526;2023-02-17T19:31:08;99696.03;;;7.35;82.74
27685;BME280;46113;50.130;8.526;2023-02-17T19:33:36;99684.53;;;6.88;85.50
27685;BME280;46113;50.130;8.526;2023-02-17T19:36:12;99692.63;;;7.08;84.98
27685;BME280;46113;50.130;8.526;2023-02-17T19:38:39;99695.19;;;7.33;83.36
27685;BME280;46113;50.130;8.526;2023-02-17T19:41:07;99698.59;;;7.13;85.07
27685;BME280;46113;50.130;8.526;2023-02-17T19:43:34;99696.38;;;7.26;84.13
27685;BME280;46113;50.130;8.526;2023-02-17T19:46:02;99710.50;;;7.23;85.33
27685;BME280;46113;50.130;8.526;2023-02-17T19:48:28;99704.91;;;7.33;84.53
27685;BME280;46113;50.130;8.526;2023-02-17T19:51:00;99695.78;;;7.17;84.84
27685;BME280;46113;50.130;8.526;2023-02-17T19:53:28;99699.84;;;7.26;84.75
27685;BME280;46113;50.130;8.526;2023-02-17T19:56:09;99709.22;;;7.10;85.42
27685;BME280;46113;50.130;8.526;2023-02-17T19:58:39;99713.00;;;7.01;86.19
27685;BME280;46113;50.130;8.526;2023-02-17T20:01:10;99711.34;;;6.73;88.69
27685;BME280;46113;50.130;8.526;2023-02-17T20:03:37;99713.97;;;6.98;88.15
27685;BME280;46113;50.130;8.526;2023-02-17T20:06:10;99715.00;;;7.20;86.81
27685;BME280;46113;50.130;8.526;2023-02-17T20:08:37;99720.25;;;6.94;87.80
27685;BME280;46113;50.130;8.526;2023-02-17T20:11:05;99728.75;;;7.02;88.15
27685;BME280;46113;50.130;8.526;2023-02-17T20:13:35;99730.13;;;7.14;87.92
27685;BME280;46113;50.130;8.526;2023-02-17T20:16:13;99741.44;;;6.64;89.94
27685;BME280;46113;50.130;8.526;2023-02-17T20:18:42;99737.81;;;6.68;90.38
27685;BME280;46113;50.130;8.526;2023-02-17T20:21:13;99745.25;;;6.81;90.66
27685;BME280;46113;50.130;8.526;2023-02-17T20:23:39;99747.56;;;6.90;90.03
27685;BME280;46113;50.130;8.526;2023-02-17T20:26:10;99753.97;;;6.83;90.20